TimeMDT,TemperatureF,Dew PointF,Humidity,Sea Level PressureIn,VisibilityMPH,Wind Direction,Wind SpeedMPH,Gust SpeedMPH,PrecipitationIn,Events,Conditions,WindDirDegrees,DateUTC
12:02 AM,21.2,15.8,80,30.17,1.2,NNW,23.0,29.9,N/A,,Overcast,340,2013-03-23 06:02:00
12:06 AM,21.2,15.8,80,30.17,1.2,NNW,23.0,29.9,N/A,,Overcast,340,2013-03-23 06:06:00
12:17 AM,19.4,14.0,80,30.17,1.5,NNW,21.9,-,N/A,,Overcast,330,2013-03-23 06:17:00
12:24 AM,19.4,14.0,80,30.18,1.5,NNW,20.7,27.6,N/A,,Overcast,330,2013-03-23 06:24:00
12:38 AM,19.4,14.0,80,30.18,1.5,NNW,20.7,26.5,N/A,,Freezing Rain,330,2013-03-23 06:38:00
12:45 AM,19.4,14.0,80,30.18,1.5,NNW,21.9,26.5,N/A,,Freezing Rain,330,2013-03-23 06:45:00
12:46 AM,19.4,14.0,80,30.18,1.5,NNW,21.9,-,N/A,,Freezing Rain,330,2013-03-23 06:46:00
12:48 AM,19.4,14.0,80,30.18,1.2,NNW,21.9,-,N/A,,Overcast,330,2013-03-23 06:48:00
12:55 AM,20.3,14.0,77,30.18,1.2,NNW,19.6,-,0.00,,Overcast,330,2013-03-23 06:55:00
12:59 AM,19.4,14.0,80,30.18,1.5,NNW,20.7,-,N/A,,Freezing Rain,330,2013-03-23 06:59:00
1:09 AM,19.4,12.2,74,30.18,1.5,NNW,19.6,26.5,N/A,,Haze,330,2013-03-23 07:09:00
1:55 AM,18.1,10.8,73,30.18,1.5,NNW,18.4,25.3,0.00,,Haze,330,2013-03-23 07:55:00
2:55 AM,16.7,9.7,74,30.20,1.5,NNW,17.3,-,N/A,,Haze,330,2013-03-23 08:55:00
3:55 AM,16.0,9.1,74,30.20,1.5,NNW,18.4,-,N/A,,Haze,330,2013-03-23 09:55:00
4:55 AM,15.8,9.9,77,30.22,1.5,NNW,15.0,-,N/A,,Haze,340,2013-03-23 10:55:00
5:43 AM,15.8,10.4,79,30.23,1.2,NNW,11.5,-,N/A,,Haze,340,2013-03-23 11:43:00
5:55 AM,16.2,9.3,74,30.23,1.2,North,9.2,-,N/A,,Haze,350,2013-03-23 11:55:00
6:13 AM,15.8,8.6,73,30.23,1.0,NNW,10.4,-,N/A,,Haze,340,2013-03-23 12:13:00
6:35 AM,14.0,8.6,79,30.24,0.8,NNW,9.2,-,N/A,,Haze,330,2013-03-23 12:35:00
6:40 AM,14.0,8.6,79,30.24,0.5,NW,10.4,-,N/A,,Haze,320,2013-03-23 12:40:00
6:43 AM,14.0,6.8,73,30.24,0.5,NW,9.2,-,N/A,,Haze,320,2013-03-23 12:43:00
6:45 AM,14.0,6.8,73,30.24,0.5,NW,9.2,-,N/A,,Haze,320,2013-03-23 12:45:00
6:55 AM,12.2,6.6,78,30.25,0.5,WNW,5.8,-,N/A,,Haze,300,2013-03-23 12:55:00
7:06 AM,10.4,5.0,79,30.25,0.8,NW,8.1,-,N/A,,Haze,310,2013-03-23 13:06:00
7:24 AM,17.6,10.4,73,30.23,0.8,NNW,16.1,-,N/A,,Haze,330,2013-03-23 13:24:00
7:37 AM,17.6,10.4,73,30.25,1.0,NNW,12.7,-,N/A,,Haze,330,2013-03-23 13:37:00
7:43 AM,17.6,8.6,68,30.25,1.0,NW,9.2,-,N/A,,Haze,310,2013-03-23 13:43:00
7:55 AM,14.0,7.9,77,30.27,1.0,West,4.6,-,N/A,,Haze,280,2013-03-23 13:55:00
7:57 AM,14.0,6.8,73,30.27,1.0,West,4.6,-,N/A,,Haze,280,2013-03-23 13:57:00
7:59 AM,14.0,6.8,73,30.27,1.2,WNW,5.8,-,N/A,,Haze,290,2013-03-23 13:59:00
8:01 AM,14.0,6.8,73,30.28,1.5,WNW,5.8,-,N/A,,Haze,300,2013-03-23 14:01:00
8:02 AM,14.0,6.8,73,30.28,1.8,WNW,6.9,-,N/A,,Haze,300,2013-03-23 14:02:00
8:03 AM,14.0,6.8,73,30.28,2.0,WNW,6.9,-,N/A,,Haze,300,2013-03-23 14:03:00
8:04 AM,14.0,6.8,73,30.28,2.5,WNW,6.9,-,N/A,,Haze,300,2013-03-23 14:04:00
8:05 AM,14.0,6.8,73,30.28,3.0,NW,6.9,-,N/A,,Haze,310,2013-03-23 14:05:00
8:55 AM,19.6,11.1,70,30.27,10.0,NNW,10.4,-,N/A,,Clear,340,2013-03-23 14:55:00
9:42 AM,19.4,12.2,74,30.29,10.0,North,9.2,-,N/A,,Mostly Cloudy,350,2013-03-23 15:42:00
9:48 AM,21.2,14.0,74,30.29,10.0,NNW,10.4,-,N/A,,Mostly Cloudy,340,2013-03-23 15:48:00
9:52 AM,21.2,14.0,74,30.29,10.0,North,15.0,-,N/A,,Mostly Cloudy,350,2013-03-23 15:52:00
9:55 AM,21.4,14.0,73,30.28,10.0,NNW,12.7,-,N/A,,Overcast,340,2013-03-23 15:55:00
9:59 AM,21.2,14.0,74,30.28,10.0,NNW,16.1,-,N/A,,Overcast,340,2013-03-23 15:59:00
10:01 AM,21.2,14.0,74,30.28,7.0,NNW,18.4,23.0,N/A,,Overcast,340,2013-03-23 16:01:00
10:09 AM,21.2,15.8,80,30.28,6.0,NNW,23.0,27.6,N/A,,Overcast,340,2013-03-23 16:09:00
10:11 AM,21.2,15.8,80,30.28,9.0,NNW,18.4,27.6,N/A,,Overcast,340,2013-03-23 16:11:00
10:16 AM,21.2,15.8,80,30.28,10.0,NNW,18.4,27.6,N/A,,Overcast,340,2013-03-23 16:16:00
10:24 AM,21.2,15.8,80,30.28,10.0,NNW,20.7,-,N/A,,Overcast,340,2013-03-23 16:24:00
10:25 AM,21.2,15.8,80,30.28,10.0,North,21.9,-,N/A,,Overcast,350,2013-03-23 16:25:00
10:26 AM,21.2,15.8,80,30.28,10.0,North,20.7,-,N/A,,Overcast,350,2013-03-23 16:26:00
10:27 AM,21.2,15.8,80,30.28,10.0,North,18.4,-,N/A,,Overcast,350,2013-03-23 16:27:00
10:29 AM,21.2,15.8,80,30.28,10.0,NNW,17.3,-,N/A,,Mostly Cloudy,340,2013-03-23 16:29:00
10:34 AM,23.0,15.8,74,30.28,10.0,North,19.6,-,N/A,,Mostly Cloudy,350,2013-03-23 16:34:00
10:37 AM,21.2,15.8,80,30.29,10.0,NNW,17.3,-,N/A,,Mostly Cloudy,340,2013-03-23 16:37:00
10:55 AM,22.6,15.4,74,30.30,10.0,North,17.3,25.3,0.00,,Scattered Clouds,350,2013-03-23 16:55:00
11:01 AM,23.0,15.8,74,30.30,8.0,NNW,19.6,25.3,N/A,,Freezing Rain,330,2013-03-23 17:01:00
11:10 AM,23.0,15.8,74,30.30,10.0,NNW,23.0,-,N/A,,Partly Cloudy,330,2013-03-23 17:10:00
11:21 AM,23.0,15.8,74,30.30,10.0,North,19.6,25.3,N/A,,Mostly Cloudy,350,2013-03-23 17:21:00
11:22 AM,23.0,17.6,80,30.30,10.0,North,20.7,25.3,N/A,Snow,Light Snow,350,2013-03-23 17:22:00
11:23 AM,23.0,17.6,80,30.30,10.0,North,19.6,25.3,N/A,Snow,Light Snow,350,2013-03-23 17:23:00
11:30 AM,23.0,15.8,74,30.30,10.0,North,18.4,24.2,N/A,Snow,Light Snow,350,2013-03-23 17:30:00
11:33 AM,23.0,15.8,74,30.30,10.0,North,18.4,-,N/A,,Mostly Cloudy,350,2013-03-23 17:33:00
11:42 AM,23.0,15.8,74,30.29,10.0,NNW,17.3,24.2,N/A,,Mostly Cloudy,340,2013-03-23 17:42:00
11:46 AM,23.0,15.8,74,30.29,10.0,North,17.3,25.3,N/A,,Scattered Clouds,350,2013-03-23 17:46:00
11:55 AM,23.4,15.6,72,30.28,10.0,North,19.6,25.3,0.00,,Scattered Clouds,350,2013-03-23 17:55:00
12:03 PM,23.0,15.8,74,30.29,10.0,North,18.4,27.6,N/A,,Mostly Cloudy,350,2013-03-23 18:03:00
12:08 PM,23.0,15.8,74,30.29,10.0,North,19.6,27.6,N/A,,Mostly Cloudy,350,2013-03-23 18:08:00
12:16 PM,23.0,15.8,74,30.29,10.0,North,19.6,25.3,N/A,,Scattered Clouds,350,2013-03-23 18:16:00
12:35 PM,23.0,15.8,74,30.29,10.0,North,18.4,26.5,N/A,,Partly Cloudy,350,2013-03-23 18:35:00
12:55 PM,23.9,15.1,69,30.27,10.0,North,23.0,-,N/A,,Clear,350,2013-03-23 18:55:00
1:55 PM,25.3,16.0,68,30.27,10.0,North,20.7,26.5,N/A,,Clear,360,2013-03-23 19:55:00
2:55 PM,25.7,15.6,66,30.27,10.0,North,20.7,31.1,N/A,,Clear,350,2013-03-23 20:55:00
3:55 PM,26.2,15.3,63,30.27,10.0,North,19.6,28.8,N/A,,Clear,360,2013-03-23 21:55:00
4:55 PM,25.5,15.3,65,30.27,10.0,North,23.0,31.1,N/A,,Clear,350,2013-03-23 22:55:00
5:55 PM,24.3,14.0,65,30.29,10.0,North,21.9,27.6,N/A,,Clear,350,2013-03-23 23:55:00
6:55 PM,22.6,12.9,66,30.31,10.0,North,18.4,-,N/A,,Clear,360,2013-03-24 00:55:00
7:55 PM,20.3,12.0,70,30.32,10.0,North,16.1,21.9,N/A,,Clear,350,2013-03-24 01:55:00
8:55 PM,19.0,11.7,73,30.33,10.0,North,13.8,-,N/A,,Clear,350,2013-03-24 02:55:00
9:55 PM,18.0,11.5,76,30.35,10.0,North,9.2,-,N/A,,Clear,350,2013-03-24 03:55:00
10:55 PM,17.1,10.9,77,30.35,10.0,North,11.5,-,N/A,,Clear,350,2013-03-24 04:55:00
11:55 PM,16.5,10.6,77,30.33,10.0,North,10.4,-,N/A,,Clear,350,2013-03-24 05:55:00